ALB weather

Albany International Airport
Albany, New York, United States

Public forecast

Using degrees Fahrenheit for public forecast. Weather courtesy of forecast.io.

METAR (pilot weather report)

Retrieved 2019/05/26 14:51 UTC (26 minutes ago):

KALB 261451Z 23003KT 10SM FEW028 SCT036 BKN047 BKN250 24/17 A2990 RMK AO2 SLP123 T02390172 50001

TAF (pilot weather forecast)

Retrieved 2019/05/26 12:24 UTC (3 hours ago):

TAF KALB 261122Z 2612/2712 23012KT P6SM SCT035 FM261600 27012G20KT P6SM SCT050 FM270000 31006KT P6SM SCT200